Chickasaw, Iowa
Current Conditions -  °F | °C
As of 1:15 PM on Friday 21 Nov 2014 (Local Time) from KCCY Reporting Station
Haze Haze  
Wind Chill: 15°   Ceiling: Unl
Heat Index: 27°   Visibility: 3mi
Dew Point: 16°   Wind: 15mph
Humidity: 64%   Direction: 170°S
Pressure: 30.18"   Gusts: 24mph
Location:  43.0386°N, 92.4951°W
Report Text: KCCY 211915Z AUTO 17013G21KT 3SM HZ CLR M03/M09 A3018 RMK AO2
Loading
Personal Weather Stations






























Interactive Weather Map New forecast layout! Learn more

10-Day Weather Forecast

Advertisements
Track Severe Weather on mobile